sensor_id;sensor_type;location;lat;lon;timestamp;P1;durP1;ratioP1;P2;durP2;ratioP2
57746;SDS011;43580;44.014;20.466;2023-09-18T00:01:52;19.08;;;15.48;;
57746;SDS011;43580;44.014;20.466;2023-09-18T00:04:18;21.40;;;14.88;;
57746;SDS011;43580;44.014;20.466;2023-09-18T00:06:45;22.15;;;15.48;;
57746;SDS011;43580;44.014;20.466;2023-09-18T00:09:11;26.40;;;16.58;;
57746;SDS011;43580;44.014;20.466;2023-09-18T00:11:38;21.25;;;15.60;;
57746;SDS011;43580;44.014;20.466;2023-09-18T00:14:04;18.35;;;14.85;;
57746;SDS011;43580;44.014;20.466;2023-09-18T00:16:31;20.13;;;15.20;;
57746;SDS011;43580;44.014;20.466;2023-09-18T00:18:57;19.17;;;15.05;;
57746;SDS011;43580;44.014;20.466;2023-09-18T00:21:24;20.33;;;15.77;;
57746;SDS011;43580;44.014;20.466;2023-09-18T00:23:55;23.10;;;15.65;;
57746;SDS011;43580;44.014;20.466;2023-09-18T00:26:23;18.88;;;15.77;;
57746;SDS011;43580;44.014;20.466;2023-09-18T00:28:51;20.00;;;15.30;;
57746;SDS011;43580;44.014;20.466;2023-09-18T00:31:18;22.70;;;15.73;;
57746;SDS011;43580;44.014;20.466;2023-09-18T00:33:44;24.13;;;14.23;;
57746;SDS011;43580;44.014;20.466;2023-09-18T00:36:15;21.45;;;15.68;;
57746;SDS011;43580;44.014;20.466;2023-09-18T00:38:41;22.15;;;15.15;;
57746;SDS011;43580;44.014;20.466;2023-09-18T00:41:07;22.55;;;15.20;;
57746;SDS011;43580;44.014;20.466;2023-09-18T00:43:36;21.70;;;16.83;;
57746;SDS011;43580;44.014;20.466;2023-09-18T00:46:02;18.38;;;14.18;;
57746;SDS011;43580;44.014;20.466;2023-09-18T00:48:28;21.80;;;15.15;;
57746;SDS011;43580;44.014;20.466;2023-09-18T00:50:55;18.83;;;15.15;;
57746;SDS011;43580;44.014;20.466;2023-09-18T00:53:22;19.08;;;15.13;;
57746;SDS011;43580;44.014;20.466;2023-09-18T00:55:50;21.92;;;14.48;;
57746;SDS011;43580;44.014;20.466;2023-09-18T00:58:18;17.15;;;14.15;;
57746;SDS011;43580;44.014;20.466;2023-09-18T01:00:44;19.75;;;14.38;;
57746;SDS011;43580;44.014;20.466;2023-09-18T01:03:10;24.52;;;13.90;;
57746;SDS011;43580;44.014;20.466;2023-09-18T01:05:36;19.00;;;14.00;;
57746;SDS011;43580;44.014;20.466;2023-09-18T01:08:02;23.02;;;14.73;;
57746;SDS011;43580;44.014;20.466;2023-09-18T01:10:32;20.35;;;14.55;;
57746;SDS011;43580;44.014;20.466;2023-09-18T01:13:21;21.13;;;14.77;;
57746;SDS011;43580;44.014;20.466;2023-09-18T01:15:48;18.60;;;14.20;;
57746;SDS011;43580;44.014;20.466;2023-09-18T01:18:17;20.75;;;14.43;;
57746;SDS011;43580;44.014;20.466;2023-09-18T01:20:44;19.35;;;13.35;;
57746;SDS011;43580;44.014;20.466;2023-09-18T01:23:10;24.60;;;14.18;;
57746;SDS011;43580;44.014;20.466;2023-09-18T01:25:36;20.83;;;14.98;;
57746;SDS011;43580;44.014;20.466;2023-09-18T01:28:03;22.70;;;16.08;;
57746;SDS011;43580;44.014;20.466;2023-09-18T01:30:29;23.40;;;15.70;;
57746;SDS011;43580;44.014;20.466;2023-09-18T01:32:58;20.55;;;15.25;;
57746;SDS011;43580;44.014;20.466;2023-09-18T01:35:27;21.10;;;15.85;;
57746;SDS011;43580;44.014;20.466;2023-09-18T01:37:55;22.75;;;16.05;;
57746;SDS011;43580;44.014;20.466;2023-09-18T01:40:22;24.33;;;16.38;;
57746;SDS011;43580;44.014;20.466;2023-09-18T01:42:48;22.85;;;15.63;;
57746;SDS011;43580;44.014;20.466;2023-09-18T01:45:14;22.48;;;16.77;;
57746;SDS011;43580;44.014;20.466;2023-09-18T01:47:41;25.08;;;17.63;;
57746;SDS011;43580;44.014;20.466;2023-09-18T01:50:07;24.25;;;17.10;;
57746;SDS011;43580;44.014;20.466;2023-09-18T01:52:33;31.98;;;20.90;;
57746;SDS011;43580;44.014;20.466;2023-09-18T01:55:02;30.65;;;20.85;;
57746;SDS011;43580;44.014;20.466;2023-09-18T01:57:32;35.47;;;21.85;;
57746;SDS011;43580;44.014;20.466;2023-09-18T01:59:58;49.13;;;25.42;;
57746;SDS011;43580;44.014;20.466;2023-09-18T02:02:24;40.80;;;24.35;;
57746;SDS011;43580;44.014;20.466;2023-09-18T02:04:50;40.15;;;23.67;;
57746;SDS011;43580;44.014;20.466;2023-09-18T02:07:16;35.33;;;23.08;;
57746;SDS011;43580;44.014;20.466;2023-09-18T02:09:42;37.70;;;22.80;;
57746;SDS011;43580;44.014;20.466;2023-09-18T02:12:09;36.75;;;23.70;;
57746;SDS011;43580;44.014;20.466;2023-09-18T02:14:36;32.60;;;22.20;;
57746;SDS011;43580;44.014;20.466;2023-09-18T02:17:03;29.67;;;20.48;;
57746;SDS011;43580;44.014;20.466;2023-09-18T02:19:30;33.75;;;20.02;;
57746;SDS011;43580;44.014;20.466;2023-09-18T02:21:56;30.98;;;19.38;;
57746;SDS011;43580;44.014;20.466;2023-09-18T02:24:22;32.03;;;20.33;;
57746;SDS011;43580;44.014;20.466;2023-09-18T02:26:48;35.17;;;22.13;;
57746;SDS011;43580;44.014;20.466;2023-09-18T02:29:14;27.95;;;20.63;;
57746;SDS011;43580;44.014;20.466;2023-09-18T02:31:40;35.70;;;22.02;;
57746;SDS011;43580;44.014;20.466;2023-09-18T02:34:07;31.27;;;21.75;;
57746;SDS011;43580;44.014;20.466;2023-09-18T02:36:34;35.70;;;23.23;;
57746;SDS011;43580;44.014;20.466;2023-09-18T02:39:00;36.00;;;22.98;;
57746;SDS011;43580;44.014;20.466;2023-09-18T02:41:26;35.22;;;23.42;;
57746;SDS011;43580;44.014;20.466;2023-09-18T02:43:52;39.47;;;22.00;;
57746;SDS011;43580;44.014;20.466;2023-09-18T02:46:18;37.72;;;22.95;;
57746;SDS011;43580;44.014;20.466;2023-09-18T02:48:44;37.50;;;24.25;;
57746;SDS011;43580;44.014;20.466;2023-09-18T02:51:10;40.15;;;23.35;;
57746;SDS011;43580;44.014;20.466;2023-09-18T02:53:36;36.15;;;22.42;;
57746;SDS011;43580;44.014;20.466;2023-09-18T02:56:02;38.33;;;22.23;;
57746;SDS011;43580;44.014;20.466;2023-09-18T02:58:30;36.80;;;22.65;;
57746;SDS011;43580;44.014;20.466;2023-09-18T03:00:57;33.33;;;20.85;;
57746;SDS011;43580;44.014;20.466;2023-09-18T03:03:24;38.03;;;23.02;;
57746;SDS011;43580;44.014;20.466;2023-09-18T03:05:50;39.13;;;24.90;;
57746;SDS011;43580;44.014;20.466;2023-09-18T03:08:16;40.80;;;24.98;;
57746;SDS011;43580;44.014;20.466;2023-09-18T03:10:42;37.40;;;24.23;;
57746;SDS011;43580;44.014;20.466;2023-09-18T03:13:09;49.15;;;26.38;;
57746;SDS011;43580;44.014;20.466;2023-09-18T03:15:36;41.17;;;26.27;;
57746;SDS011;43580;44.014;20.466;2023-09-18T03:18:05;41.35;;;24.77;;
57746;SDS011;43580;44.014;20.466;2023-09-18T03:20:32;40.65;;;24.70;;
57746;SDS011;43580;44.014;20.466;2023-09-18T03:22:59;42.85;;;24.40;;
57746;SDS011;43580;44.014;20.466;2023-09-18T03:25:28;41.33;;;24.50;;
57746;SDS011;43580;44.014;20.466;2023-09-18T03:27:57;39.38;;;23.35;;
57746;SDS011;43580;44.014;20.466;2023-09-18T03:30:25;38.90;;;23.95;;
57746;SDS011;43580;44.014;20.466;2023-09-18T03:32:51;45.17;;;24.77;;
57746;SDS011;43580;44.014;20.466;2023-09-18T03:35:20;42.85;;;25.58;;
57746;SDS011;43580;44.014;20.466;2023-09-18T03:37:50;53.20;;;27.88;;
57746;SDS011;43580;44.014;20.466;2023-09-18T03:40:21;40.38;;;24.48;;
57746;SDS011;43580;44.014;20.466;2023-09-18T03:42:48;48.70;;;27.27;;
57746;SDS011;43580;44.014;20.466;2023-09-18T03:45:14;46.35;;;25.83;;
57746;SDS011;43580;44.014;20.466;2023-09-18T03:47:43;50.95;;;25.67;;
57746;SDS011;43580;44.014;20.466;2023-09-18T03:50:10;52.30;;;28.08;;
57746;SDS011;43580;44.014;20.466;2023-09-18T03:52:37;48.70;;;26.45;;
57746;SDS011;43580;44.014;20.466;2023-09-18T03:55:03;63.80;;;27.02;;
57746;SDS011;43580;44.014;20.466;2023-09-18T03:57:30;45.05;;;26.17;;
57746;SDS011;43580;44.014;20.466;2023-09-18T03:59:56;45.90;;;25.42;;
57746;SDS011;43580;44.014;20.466;2023-09-18T04:02:24;46.20;;;25.20;;
57746;SDS011;43580;44.014;20.466;2023-09-18T04:04:50;41.80;;;23.95;;
57746;SDS011;43580;44.014;20.466;2023-09-18T04:07:16;43.33;;;25.73;;
57746;SDS011;43580;44.014;20.466;2023-09-18T04:09:44;46.15;;;25.17;;
57746;SDS011;43580;44.014;20.466;2023-09-18T04:12:10;52.83;;;27.00;;
57746;SDS011;43580;44.014;20.466;2023-09-18T04:14:36;46.58;;;26.40;;
57746;SDS011;43580;44.014;20.466;2023-09-18T04:17:02;60.28;;;29.90;;
57746;SDS011;43580;44.014;20.466;2023-09-18T04:19:31;54.65;;;27.95;;
57746;SDS011;43580;44.014;20.466;2023-09-18T04:21:57;51.80;;;28.83;;
57746;SDS011;43580;44.014;20.466;2023-09-18T04:24:23;82.65;;;32.92;;
57746;SDS011;43580;44.014;20.466;2023-09-18T04:26:49;67.40;;;32.20;;
57746;SDS011;43580;44.014;20.466;2023-09-18T04:29:18;53.13;;;29.63;;
57746;SDS011;43580;44.014;20.466;2023-09-18T04:31:45;61.05;;;31.38;;
57746;SDS011;43580;44.014;20.466;2023-09-18T04:34:12;43.03;;;27.15;;
57746;SDS011;43580;44.014;20.466;2023-09-18T04:36:38;58.90;;;28.05;;
57746;SDS011;43580;44.014;20.466;2023-09-18T04:39:08;48.17;;;26.85;;
57746;SDS011;43580;44.014;20.466;2023-09-18T04:41:39;52.35;;;28.33;;
57746;SDS011;43580;44.014;20.466;2023-09-18T04:44:08;58.35;;;30.38;;
57746;SDS011;43580;44.014;20.466;2023-09-18T04:46:34;74.35;;;30.35;;
57746;SDS011;43580;44.014;20.466;2023-09-18T04:49:07;55.10;;;30.13;;
57746;SDS011;43580;44.014;20.466;2023-09-18T04:51:35;80.25;;;33.10;;
57746;SDS011;43580;44.014;20.466;2023-09-18T04:54:01;48.72;;;28.50;;
57746;SDS011;43580;44.014;20.466;2023-09-18T04:56:29;68.20;;;30.45;;
57746;SDS011;43580;44.014;20.466;2023-09-18T04:58:55;54.78;;;29.85;;
57746;SDS011;43580;44.014;20.466;2023-09-18T05:01:23;39.00;;;26.40;;
57746;SDS011;43580;44.014;20.466;2023-09-18T05:03:49;49.53;;;29.85;;
57746;SDS011;43580;44.014;20.466;2023-09-18T05:06:23;42.63;;;27.55;;
57746;SDS011;43580;44.014;20.466;2023-09-18T05:08:49;38.75;;;27.67;;
57746;SDS011;43580;44.014;20.466;2023-09-18T05:11:16;46.55;;;30.20;;
57746;SDS011;43580;44.014;20.466;2023-09-18T05:13:43;45.00;;;29.30;;
57746;SDS011;43580;44.014;20.466;2023-09-18T05:16:09;42.33;;;28.23;;
57746;SDS011;43580;44.014;20.466;2023-09-18T05:18:36;37.42;;;26.15;;
57746;SDS011;43580;44.014;20.466;2023-09-18T05:21:03;35.00;;;26.33;;
57746;SDS011;43580;44.014;20.466;2023-09-18T05:23:34;42.88;;;28.33;;
57746;SDS011;43580;44.014;20.466;2023-09-18T05:26:00;40.88;;;27.45;;
57746;SDS011;43580;44.014;20.466;2023-09-18T05:28:29;46.75;;;29.90;;
57746;SDS011;43580;44.014;20.466;2023-09-18T05:30:55;47.47;;;28.05;;
57746;SDS011;43580;44.014;20.466;2023-09-18T05:33:22;47.97;;;28.98;;
57746;SDS011;43580;44.014;20.466;2023-09-18T05:35:50;46.28;;;29.67;;
57746;SDS011;43580;44.014;20.466;2023-09-18T05:38:17;46.83;;;28.67;;
57746;SDS011;43580;44.014;20.466;2023-09-18T05:40:53;47.95;;;32.03;;
57746;SDS011;43580;44.014;20.466;2023-09-18T05:43:19;36.83;;;27.05;;
57746;SDS011;43580;44.014;20.466;2023-09-18T05:45:45;34.63;;;25.85;;
57746;SDS011;43580;44.014;20.466;2023-09-18T05:48:14;36.70;;;26.25;;
57746;SDS011;43580;44.014;20.466;2023-09-18T05:50:45;29.83;;;22.67;;
57746;SDS011;43580;44.014;20.466;2023-09-18T05:53:12;33.00;;;24.77;;
57746;SDS011;43580;44.014;20.466;2023-09-18T05:55:38;31.15;;;24.63;;
57746;SDS011;43580;44.014;20.466;2023-09-18T05:58:09;40.08;;;30.15;;
57746;SDS011;43580;44.014;20.466;2023-09-18T06:00:35;39.65;;;27.60;;
57746;SDS011;43580;44.014;20.466;2023-09-18T06:03:02;35.30;;;27.95;;
57746;SDS011;43580;44.014;20.466;2023-09-18T06:05:30;29.25;;;22.52;;
57746;SDS011;43580;44.014;20.466;2023-09-18T06:07:57;33.70;;;24.08;;
57746;SDS011;43580;44.014;20.466;2023-09-18T06:10:23;35.67;;;26.65;;
57746;SDS011;43580;44.014;20.466;2023-09-18T06:12:49;30.38;;;24.30;;
57746;SDS011;43580;44.014;20.466;2023-09-18T06:15:15;32.45;;;25.08;;
57746;SDS011;43580;44.014;20.466;2023-09-18T06:17:43;30.25;;;22.40;;
57746;SDS011;43580;44.014;20.466;2023-09-18T06:20:10;33.03;;;23.17;;
57746;SDS011;43580;44.014;20.466;2023-09-18T06:22:38;27.85;;;22.38;;
57746;SDS011;43580;44.014;20.466;2023-09-18T06:25:04;29.27;;;22.83;;
57746;SDS011;43580;44.014;20.466;2023-09-18T06:27:31;35.22;;;28.02;;
57746;SDS011;43580;44.014;20.466;2023-09-18T06:29:57;37.45;;;28.90;;
57746;SDS011;43580;44.014;20.466;2023-09-18T06:32:23;33.35;;;24.63;;
57746;SDS011;43580;44.014;20.466;2023-09-18T06:34:49;28.05;;;22.45;;
57746;SDS011;43580;44.014;20.466;2023-09-18T06:37:15;27.88;;;22.25;;
57746;SDS011;43580;44.014;20.466;2023-09-18T06:39:43;27.52;;;21.50;;
57746;SDS011;43580;44.014;20.466;2023-09-18T06:42:14;26.63;;;21.80;;
57746;SDS011;43580;44.014;20.466;2023-09-18T06:44:40;25.60;;;21.95;;
57746;SDS011;43580;44.014;20.466;2023-09-18T06:47:06;26.67;;;20.25;;
57746;SDS011;43580;44.014;20.466;2023-09-18T06:49:35;31.77;;;21.77;;
57746;SDS011;43580;44.014;20.466;2023-09-18T06:52:01;26.48;;;20.60;;
57746;SDS011;43580;44.014;20.466;2023-09-18T06:54:27;28.17;;;22.00;;
57746;SDS011;43580;44.014;20.466;2023-09-18T06:56:54;24.27;;;20.17;;
57746;SDS011;43580;44.014;20.466;2023-09-18T06:59:20;26.77;;;20.65;;
57746;SDS011;43580;44.014;20.466;2023-09-18T07:01:46;26.95;;;20.80;;
57746;SDS011;43580;44.014;20.466;2023-09-18T07:04:12;48.97;;;40.65;;
57746;SDS011;43580;44.014;20.466;2023-09-18T07:06:38;26.58;;;19.80;;
57746;SDS011;43580;44.014;20.466;2023-09-18T07:09:06;23.10;;;18.92;;
57746;SDS011;43580;44.014;20.466;2023-09-18T07:11:38;26.52;;;19.33;;
57746;SDS011;43580;44.014;20.466;2023-09-18T07:14:07;24.15;;;18.13;;
57746;SDS011;43580;44.014;20.466;2023-09-18T07:16:38;24.25;;;18.17;;
57746;SDS011;43580;44.014;20.466;2023-09-18T07:19:04;25.50;;;18.85;;
57746;SDS011;43580;44.014;20.466;2023-09-18T07:21:30;23.00;;;19.00;;
57746;SDS011;43580;44.014;20.466;2023-09-18T07:24:00;26.55;;;18.92;;
57746;SDS011;43580;44.014;20.466;2023-09-18T07:26:26;21.33;;;16.13;;
57746;SDS011;43580;44.014;20.466;2023-09-18T07:28:52;26.02;;;19.65;;
57746;SDS011;43580;44.014;20.466;2023-09-18T07:31:18;23.45;;;18.02;;
57746;SDS011;43580;44.014;20.466;2023-09-18T07:33:46;20.80;;;17.17;;
57746;SDS011;43580;44.014;20.466;2023-09-18T07:36:13;23.30;;;17.85;;
57746;SDS011;43580;44.014;20.466;2023-09-18T07:38:42;25.55;;;18.67;;
57746;SDS011;43580;44.014;20.466;2023-09-18T07:41:13;22.30;;;17.77;;
57746;SDS011;43580;44.014;20.466;2023-09-18T07:43:40;24.30;;;18.38;;
57746;SDS011;43580;44.014;20.466;2023-09-18T07:46:06;20.45;;;16.13;;
57746;SDS011;43580;44.014;20.466;2023-09-18T07:48:35;22.00;;;17.40;;
57746;SDS011;43580;44.014;20.466;2023-09-18T07:51:02;19.40;;;16.95;;
57746;SDS011;43580;44.014;20.466;2023-09-18T07:53:31;22.98;;;17.25;;
57746;SDS011;43580;44.014;20.466;2023-09-18T07:55:57;25.35;;;16.92;;
57746;SDS011;43580;44.014;20.466;2023-09-18T07:58:27;25.45;;;18.85;;
57746;SDS011;43580;44.014;20.466;2023-09-18T08:00:54;21.50;;;15.77;;
57746;SDS011;43580;44.014;20.466;2023-09-18T08:03:25;25.70;;;18.27;;
57746;SDS011;43580;44.014;20.466;2023-09-18T08:05:53;24.00;;;17.50;;
57746;SDS011;43580;44.014;20.466;2023-09-18T08:08:22;22.98;;;14.93;;
57746;SDS011;43580;44.014;20.466;2023-09-18T08:10:52;24.95;;;17.35;;
57746;SDS011;43580;44.014;20.466;2023-09-18T08:13:18;21.60;;;17.35;;
57746;SDS011;43580;44.014;20.466;2023-09-18T08:15:48;24.83;;;18.85;;
57746;SDS011;43580;44.014;20.466;2023-09-18T08:18:14;21.40;;;16.70;;
57746;SDS011;43580;44.014;20.466;2023-09-18T08:20:41;21.50;;;17.23;;
57746;SDS011;43580;44.014;20.466;2023-09-18T08:23:07;21.77;;;16.30;;
57746;SDS011;43580;44.014;20.466;2023-09-18T08:25:36;22.55;;;17.98;;
57746;SDS011;43580;44.014;20.466;2023-09-18T08:28:02;20.60;;;16.42;;
57746;SDS011;43580;44.014;20.466;2023-09-18T08:30:29;18.58;;;15.38;;
57746;SDS011;43580;44.014;20.466;2023-09-18T08:32:55;19.83;;;17.02;;
57746;SDS011;43580;44.014;20.466;2023-09-18T08:35:22;19.58;;;17.33;;
57746;SDS011;43580;44.014;20.466;2023-09-18T08:37:54;19.50;;;15.48;;
57746;SDS011;43580;44.014;20.466;2023-09-18T08:40:22;20.90;;;16.33;;
57746;SDS011;43580;44.014;20.466;2023-09-18T08:42:51;18.73;;;16.52;;
57746;SDS011;43580;44.014;20.466;2023-09-18T08:45:20;19.45;;;16.15;;
57746;SDS011;43580;44.014;20.466;2023-09-18T08:47:48;22.40;;;16.48;;
57746;SDS011;43580;44.014;20.466;2023-09-18T08:50:18;18.27;;;14.75;;
57746;SDS011;43580;44.014;20.466;2023-09-18T08:52:45;25.48;;;18.58;;
57746;SDS011;43580;44.014;20.466;2023-09-18T08:55:11;22.85;;;16.33;;
57746;SDS011;43580;44.014;20.466;2023-09-18T08:57:40;20.80;;;15.77;;
57746;SDS011;43580;44.014;20.466;2023-09-18T09:00:12;17.10;;;14.68;;
57746;SDS011;43580;44.014;20.466;2023-09-18T09:02:43;17.60;;;15.65;;
57746;SDS011;43580;44.014;20.466;2023-09-18T09:05:09;20.30;;;15.02;;
57746;SDS011;43580;44.014;20.466;2023-09-18T09:07:35;20.75;;;15.27;;
57746;SDS011;43580;44.014;20.466;2023-09-18T09:10:04;16.77;;;14.93;;
57746;SDS011;43580;44.014;20.466;2023-09-18T09:15:15;25.40;;;14.73;;
57746;SDS011;43580;44.014;20.466;2023-09-18T09:17:44;25.60;;;19.02;;
57746;SDS011;43580;44.014;20.466;2023-09-18T09:20:10;17.27;;;14.57;;
57746;SDS011;43580;44.014;20.466;2023-09-18T09:22:37;17.55;;;14.05;;
57746;SDS011;43580;44.014;20.466;2023-09-18T09:25:10;18.90;;;14.07;;
57746;SDS011;43580;44.014;20.466;2023-09-18T09:27:52;15.50;;;13.55;;
57746;SDS011;43580;44.014;20.466;2023-09-18T09:30:22;15.93;;;12.93;;
57746;SDS011;43580;44.014;20.466;2023-09-18T09:32:49;18.45;;;14.40;;
57746;SDS011;43580;44.014;20.466;2023-09-18T09:35:29;18.05;;;13.57;;
57746;SDS011;43580;44.014;20.466;2023-09-18T09:37:59;17.30;;;14.20;;
57746;SDS011;43580;44.014;20.466;2023-09-18T09:40:26;17.95;;;13.90;;
57746;SDS011;43580;44.014;20.466;2023-09-18T09:42:56;14.68;;;13.07;;
57746;SDS011;43580;44.014;20.466;2023-09-18T09:45:30;16.92;;;13.73;;
57746;SDS011;43580;44.014;20.466;2023-09-18T09:48:00;17.08;;;12.68;;
57746;SDS011;43580;44.014;20.466;2023-09-18T09:50:27;15.90;;;12.65;;
57746;SDS011;43580;44.014;20.466;2023-09-18T09:52:54;20.23;;;13.18;;
57746;SDS011;43580;44.014;20.466;2023-09-18T09:58:02;15.30;;;12.20;;
57746;SDS011;43580;44.014;20.466;2023-09-18T10:00:30;14.02;;;12.13;;
57746;SDS011;43580;44.014;20.466;2023-09-18T10:03:02;14.18;;;11.95;;
57746;SDS011;43580;44.014;20.466;2023-09-18T10:05:35;15.40;;;12.82;;
57746;SDS011;43580;44.014;20.466;2023-09-18T10:08:06;15.13;;;12.52;;
57746;SDS011;43580;44.014;20.466;2023-09-18T10:10:34;14.23;;;11.77;;
57746;SDS011;43580;44.014;20.466;2023-09-18T10:13:02;14.02;;;11.23;;
57746;SDS011;43580;44.014;20.466;2023-09-18T10:15:29;14.77;;;12.48;;
57746;SDS011;43580;44.014;20.466;2023-09-18T10:17:56;15.15;;;11.90;;
57746;SDS011;43580;44.014;20.466;2023-09-18T10:20:24;13.65;;;12.20;;
57746;SDS011;43580;44.014;20.466;2023-09-18T10:22:52;16.63;;;11.93;;
57746;SDS011;43580;44.014;20.466;2023-09-18T10:27:47;16.05;;;12.18;;
57746;SDS011;43580;44.014;20.466;2023-09-18T10:30:34;13.90;;;11.85;;
57746;SDS011;43580;44.014;20.466;2023-09-18T10:33:02;14.75;;;11.02;;
57746;SDS011;43580;44.014;20.466;2023-09-18T10:35:32;16.23;;;14.32;;
57746;SDS011;43580;44.014;20.466;2023-09-18T10:38:01;14.32;;;12.23;;
57746;SDS011;43580;44.014;20.466;2023-09-18T10:40:28;15.45;;;11.38;;
57746;SDS011;43580;44.014;20.466;2023-09-18T10:42:54;20.20;;;12.10;;
57746;SDS011;43580;44.014;20.466;2023-09-18T10:45:30;26.25;;;21.45;;
57746;SDS011;43580;44.014;20.466;2023-09-18T10:47:59;19.25;;;17.17;;
57746;SDS011;43580;44.014;20.466;2023-09-18T10:50:26;17.27;;;13.20;;
57746;SDS011;43580;44.014;20.466;2023-09-18T10:52:52;14.02;;;11.02;;
57746;SDS011;43580;44.014;20.466;2023-09-18T10:55:18;15.25;;;11.65;;
57746;SDS011;43580;44.014;20.466;2023-09-18T10:57:53;14.88;;;11.30;;
57746;SDS011;43580;44.014;20.466;2023-09-18T11:00:20;15.75;;;11.02;;
57746;SDS011;43580;44.014;20.466;2023-09-18T11:05:32;15.18;;;10.77;;
57746;SDS011;43580;44.014;20.466;2023-09-18T11:13:45;16.92;;;10.90;;
57746;SDS011;43580;44.014;20.466;2023-09-18T11:16:19;13.88;;;9.90;;
57746;SDS011;43580;44.014;20.466;2023-09-18T11:21:30;12.13;;;10.00;;
57746;SDS011;43580;44.014;20.466;2023-09-18T11:24:00;12.30;;;10.77;;
57746;SDS011;43580;44.014;20.466;2023-09-18T11:26:36;11.52;;;10.00;;
57746;SDS011;43580;44.014;20.466;2023-09-18T11:29:08;14.90;;;10.45;;
57746;SDS011;43580;44.014;20.466;2023-09-18T11:32:07;12.13;;;9.48;;
57746;SDS011;43580;44.014;20.466;2023-09-18T11:34:29;11.88;;;10.18;;
57746;SDS011;43580;44.014;20.466;2023-09-18T11:37:00;12.45;;;10.10;;
57746;SDS011;43580;44.014;20.466;2023-09-18T11:39:35;14.52;;;10.15;;
57746;SDS011;43580;44.014;20.466;2023-09-18T11:42:20;11.50;;;9.48;;
57746;SDS011;43580;44.014;20.466;2023-09-18T11:44:47;15.57;;;11.45;;
57746;SDS011;43580;44.014;20.466;2023-09-18T11:47:15;12.55;;;9.93;;
57746;SDS011;43580;44.014;20.466;2023-09-18T11:49:57;11.35;;;8.57;;
57746;SDS011;43580;44.014;20.466;2023-09-18T11:52:24;11.73;;;9.00;;
57746;SDS011;43580;44.014;20.466;2023-09-18T11:54:50;13.77;;;9.90;;
57746;SDS011;43580;44.014;20.466;2023-09-18T11:57:23;11.48;;;8.45;;
57746;SDS011;43580;44.014;20.466;2023-09-18T11:59:50;11.80;;;8.63;;
57746;SDS011;43580;44.014;20.466;2023-09-18T12:02:28;12.20;;;8.88;;
57746;SDS011;43580;44.014;20.466;2023-09-18T12:05:13;12.43;;;8.55;;
57746;SDS011;43580;44.014;20.466;2023-09-18T12:07:45;11.97;;;8.53;;
57746;SDS011;43580;44.014;20.466;2023-09-18T12:10:16;14.30;;;9.30;;
57746;SDS011;43580;44.014;20.466;2023-09-18T12:12:46;10.38;;;9.15;;
57746;SDS011;43580;44.014;20.466;2023-09-18T12:15:12;9.88;;;8.02;;
57746;SDS011;43580;44.014;20.466;2023-09-18T12:17:45;14.10;;;9.50;;
57746;SDS011;43580;44.014;20.466;2023-09-18T12:20:17;14.75;;;9.15;;
57746;SDS011;43580;44.014;20.466;2023-09-18T12:22:49;13.88;;;9.40;;
57746;SDS011;43580;44.014;20.466;2023-09-18T12:25:18;9.82;;;8.82;;
57746;SDS011;43580;44.014;20.466;2023-09-18T12:27:52;11.95;;;8.65;;
57746;SDS011;43580;44.014;20.466;2023-09-18T12:30:18;12.55;;;8.93;;
57746;SDS011;43580;44.014;20.466;2023-09-18T12:32:45;12.98;;;9.20;;
57746;SDS011;43580;44.014;20.466;2023-09-18T12:35:15;12.75;;;8.52;;
57746;SDS011;43580;44.014;20.466;2023-09-18T12:37:48;13.57;;;8.65;;
57746;SDS011;43580;44.014;20.466;2023-09-18T12:40:21;11.95;;;8.90;;
57746;SDS011;43580;44.014;20.466;2023-09-18T12:42:50;12.70;;;9.13;;
57746;SDS011;43580;44.014;20.466;2023-09-18T12:45:16;14.75;;;11.20;;
57746;SDS011;43580;44.014;20.466;2023-09-18T12:47:43;12.55;;;8.65;;
57746;SDS011;43580;44.014;20.466;2023-09-18T12:50:14;10.23;;;8.38;;
57746;SDS011;43580;44.014;20.466;2023-09-18T12:52:43;13.15;;;9.00;;
57746;SDS011;43580;44.014;20.466;2023-09-18T12:55:20;10.40;;;8.40;;
57746;SDS011;43580;44.014;20.466;2023-09-18T12:57:46;11.00;;;8.73;;
57746;SDS011;43580;44.014;20.466;2023-09-18T13:00:15;14.27;;;8.65;;
57746;SDS011;43580;44.014;20.466;2023-09-18T13:02:45;13.43;;;8.50;;
57746;SDS011;43580;44.014;20.466;2023-09-18T13:05:11;11.57;;;8.70;;
57746;SDS011;43580;44.014;20.466;2023-09-18T13:07:43;14.02;;;8.25;;
57746;SDS011;43580;44.014;20.466;2023-09-18T13:10:12;10.48;;;7.60;;
57746;SDS011;43580;44.014;20.466;2023-09-18T13:12:46;14.88;;;8.27;;
57746;SDS011;43580;44.014;20.466;2023-09-18T13:15:23;13.52;;;8.23;;
57746;SDS011;43580;44.014;20.466;2023-09-18T13:17:52;10.80;;;8.05;;
57746;SDS011;43580;44.014;20.466;2023-09-18T13:20:20;10.35;;;7.65;;
57746;SDS011;43580;44.014;20.466;2023-09-18T13:22:49;11.32;;;8.63;;
57746;SDS011;43580;44.014;20.466;2023-09-18T13:25:19;9.82;;;7.35;;
57746;SDS011;43580;44.014;20.466;2023-09-18T13:27:46;8.98;;;7.85;;
57746;SDS011;43580;44.014;20.466;2023-09-18T13:30:13;10.52;;;8.68;;
57746;SDS011;43580;44.014;20.466;2023-09-18T13:32:42;8.57;;;7.68;;
57746;SDS011;43580;44.014;20.466;2023-09-18T13:35:14;11.63;;;8.43;;
57746;SDS011;43580;44.014;20.466;2023-09-18T13:37:40;10.68;;;7.72;;
57746;SDS011;43580;44.014;20.466;2023-09-18T13:40:07;11.65;;;8.68;;
57746;SDS011;43580;44.014;20.466;2023-09-18T13:42:36;14.07;;;8.40;;
57746;SDS011;43580;44.014;20.466;2023-09-18T13:45:05;13.68;;;8.13;;
57746;SDS011;43580;44.014;20.466;2023-09-18T13:47:32;11.85;;;7.70;;
57746;SDS011;43580;44.014;20.466;2023-09-18T13:50:03;10.45;;;7.05;;
57746;SDS011;43580;44.014;20.466;2023-09-18T13:52:30;12.85;;;7.90;;
57746;SDS011;43580;44.014;20.466;2023-09-18T13:54:57;13.98;;;8.85;;
57746;SDS011;43580;44.014;20.466;2023-09-18T13:57:24;12.95;;;9.25;;
57746;SDS011;43580;44.014;20.466;2023-09-18T13:59:50;11.52;;;8.00;;
57746;SDS011;43580;44.014;20.466;2023-09-18T14:02:17;10.85;;;7.75;;
57746;SDS011;43580;44.014;20.466;2023-09-18T14:04:44;11.02;;;8.40;;
57746;SDS011;43580;44.014;20.466;2023-09-18T14:07:13;12.32;;;8.20;;
57746;SDS011;43580;44.014;20.466;2023-09-18T14:12:11;12.65;;;7.43;;
57746;SDS011;43580;44.014;20.466;2023-09-18T14:14:37;11.38;;;7.45;;
57746;SDS011;43580;44.014;20.466;2023-09-18T14:17:05;11.05;;;7.20;;
57746;SDS011;43580;44.014;20.466;2023-09-18T14:19:31;8.07;;;7.10;;
57746;SDS011;43580;44.014;20.466;2023-09-18T14:21:57;12.10;;;7.30;;
57746;SDS011;43580;44.014;20.466;2023-09-18T14:24:31;10.05;;;7.68;;
57746;SDS011;43580;44.014;20.466;2023-09-18T14:26:59;10.55;;;7.60;;
57746;SDS011;43580;44.014;20.466;2023-09-18T14:29:25;10.48;;;7.75;;
57746;SDS011;43580;44.014;20.466;2023-09-18T14:31:52;10.70;;;8.02;;
57746;SDS011;43580;44.014;20.466;2023-09-18T14:36:55;11.32;;;7.72;;
57746;SDS011;43580;44.014;20.466;2023-09-18T14:39:24;10.95;;;7.63;;
57746;SDS011;43580;44.014;20.466;2023-09-18T14:41:51;10.75;;;7.57;;